Time;durP1;ratioP1;P1;durP2;ratioP2;P2;SDS_P1;SDS_P2;PMS_P1;PMS_P2;Temp;Humidity;BMP_temperature;BMP_pressure;BME280_temperature;BME280_humidity;BME280_pressure;Samples;Min_cycle;Max_cycle;Signal;HPM_P1;HPM_P2
2022/05/16 00:00:17;;;;;;;;;;;;;;;23.26;42.21;95710.44;10357297;28;1878;-57
2022/05/16 00:05:19;;;;;;;;;;;;;;;23.26;42.34;95705.16;10344133;28;1832;-61
2022/05/16 00:10:19;;;;;;;;;;;;;;;23.25;42.23;95714.94;10335389;28;1742;-58
2022/05/16 00:15:20;;;;;;;;;;;;;;;23.26;42.44;95718.38;10333834;28;1910;-60
2022/05/16 00:20:20;;;;;;;;;;;;;;;23.25;42.23;95719.44;10338216;28;2522;-56
2022/05/16 00:25:21;;;;;;;;;;;;;;;23.26;42.22;95721.03;10347021;28;1909;-61
2022/05/16 00:30:21;;;;;;;;;;;;;;;23.26;42.34;95723.66;10355265;28;2334;-61
2022/05/16 00:35:21;;;;;;;;;;;;;;;23.25;42.07;95724.72;10341422;28;1951;-61
2022/05/16 00:40:22;;;;;;;;;;;;;;;23.26;42.29;95718.38;10352323;28;1815;-59
2022/05/16 00:45:22;;;;;;;;;;;;;;;23.26;42.02;95716.53;10357498;28;1847;-60
2022/05/16 00:50:22;;;;;;;;;;;;;;;23.26;42.15;95715.72;10310184;28;1155533;-61
2022/05/16 00:55:27;;;;;;;;;;;;;;;23.26;41.89;95715.72;10337990;28;1957;-58
2022/05/16 01:00:29;;;;;;;;;;;;;;;23.25;42.23;95707.00;10324363;28;1883;-58
2022/05/16 01:05:30;;;;;;;;;;;;;;;23.25;42.39;95701.72;10349896;28;1953;-60
2022/05/16 01:10:36;;;;;;;;;;;;;;;23.25;42.16;95708.84;10347806;28;2007;-59
2022/05/16 01:15:37;;;;;;;;;;;;;;;23.25;42.00;95711.50;10312632;28;1906;-58
2022/05/16 01:20:49;;;;;;;;;;;;;;;23.26;42.24;95715.72;10337789;28;1869;-59
2022/05/16 01:25:50;;;;;;;;;;;;;;;23.26;41.79;95726.31;10331511;28;1906;-57
2022/05/16 01:30:51;;;;;;;;;;;;;;;23.25;42.11;95717.59;10337302;28;1800;-59
2022/05/16 01:35:52;;;;;;;;;;;;;;;23.25;42.10;95725.53;10353943;28;1945;-59
2022/05/16 01:40:53;;;;;;;;;;;;;;;23.25;42.04;95719.44;10354865;28;1879;-58
2022/05/16 01:45:54;;;;;;;;;;;;;;;23.26;42.04;95731.59;10350556;28;1910;-61
2022/05/16 01:50:56;;;;;;;;;;;;;;;23.25;41.95;95735.31;10321147;28;1780;-59
2022/05/16 01:55:56;;;;;;;;;;;;;;;23.24;42.17;95731.09;10332144;28;1914;-61
2022/05/16 02:00:57;;;;;;;;;;;;;;;23.23;42.14;95735.59;10349978;28;1779;-60
2022/05/16 02:05:58;;;;;;;;;;;;;;;23.24;42.18;95739.03;10333356;28;1824;-59
2022/05/16 02:10:59;;;;;;;;;;;;;;;23.23;42.13;95740.09;10333794;28;1796;-61
2022/05/16 02:16:00;;;;;;;;;;;;;;;23.23;41.96;95745.38;10350690;28;1961;-59
2022/05/16 02:26:19;;;;;;;;;;;;;;;23.22;41.81;95739.34;10327103;28;2011;-58
2022/05/16 02:31:22;;;;;;;;;;;;;;;23.22;41.87;95720.03;10335680;28;1612;-59
2022/05/16 02:36:23;;;;;;;;;;;;;;;23.23;41.71;95713.66;10351505;28;1973;-59
2022/05/16 02:41:23;;;;;;;;;;;;;;;23.22;41.98;95720.81;10352782;28;1974;-61
2022/05/16 02:46:25;;;;;;;;;;;;;;;23.22;41.87;95725.31;10335616;28;1927;-60
2022/05/16 02:51:25;;;;;;;;;;;;;;;23.21;41.82;95724.53;10340768;28;2046;-60
2022/05/16 02:56:26;;;;;;;;;;;;;;;23.22;41.92;95733.25;10345575;28;1951;-59
2022/05/16 03:01:26;;;;;;;;;;;;;;;23.20;41.88;95730.91;10340404;28;1955;-58
2022/05/16 03:06:26;;;;;;;;;;;;;;;23.21;41.77;95739.59;10328493;28;1903;-59
2022/05/16 03:11:27;;;;;;;;;;;;;;;23.21;41.70;95739.59;10333248;28;1923;-59
2022/05/16 03:16:27;;;;;;;;;;;;;;;23.21;42.09;95734.31;10339290;28;1907;-59
2022/05/16 03:21:27;;;;;;;;;;;;;;;23.21;41.78;95734.31;10332032;28;1921;-60
2022/05/16 03:26:28;;;;;;;;;;;;;;;23.20;42.03;95724.84;10328636;28;1984;-60
2022/05/16 03:31:29;;;;;;;;;;;;;;;23.20;41.90;95722.97;10354229;28;1895;-60
2022/05/16 03:36:29;;;;;;;;;;;;;;;23.20;41.95;95722.19;10333412;28;2002;-60
2022/05/16 03:41:29;;;;;;;;;;;;;;;23.20;41.92;95722.19;10340416;28;1900;-59
2022/05/16 03:46:29;;;;;;;;;;;;;;;23.20;41.88;95719.53;10346733;28;1940;-60
2022/05/16 03:51:30;;;;;;;;;;;;;;;23.21;41.95;95721.88;10350707;28;2134;-61
2022/05/16 03:56:30;;;;;;;;;;;;;;;23.05;40.36;95727.72;10344344;28;2009;-59
2022/05/16 04:01:30;;;;;;;;;;;;;;;22.63;40.29;95729.41;10351790;28;1970;-60
2022/05/16 04:06:34;;;;;;;;;;;;;;;22.33;40.83;95736.97;10345904;28;1944;-60
2022/05/16 04:11:34;;;;;;;;;;;;;;;22.12;40.84;95747.00;10335095;28;1935;-59
2022/05/16 04:16:39;;;;;;;;;;;;;;;22.01;41.03;95742.91;10343269;28;1918;-62
2022/05/16 04:21:40;;;;;;;;;;;;;;;21.90;41.50;95756.50;10366101;28;1979;-61
2022/05/16 04:26:42;;;;;;;;;;;;;;;22.00;41.65;95751.91;10352388;28;1923;-59
2022/05/16 04:31:43;;;;;;;;;;;;;;;22.24;41.69;95742.09;10356114;28;1948;-60
2022/05/16 04:36:43;;;;;;;;;;;;;;;22.43;41.40;95739.47;10339934;28;1906;-60
2022/05/16 04:47:03;;;;;;;;;;;;;;;22.74;41.07;95745.13;10351230;28;1924;-60
2022/05/16 04:52:04;;;;;;;;;;;;;;;22.81;41.14;95738.41;10357790;28;1924;-58
2022/05/16 04:57:04;;;;;;;;;;;;;;;22.86;41.40;95737.53;10331982;28;1962;-57
2022/05/16 05:02:05;;;;;;;;;;;;;;;22.91;41.44;95748.03;10349292;28;2139;-61
2022/05/16 05:07:06;;;;;;;;;;;;;;;22.94;41.31;95750.09;10352303;28;1889;-59
2022/05/16 05:17:25;;;;;;;;;;;;;;;22.96;41.50;95755.88;10368557;28;1910;-60
2022/05/16 05:22:25;;;;;;;;;;;;;;;22.99;41.34;95755.31;10353866;28;1968;-59
2022/05/16 05:27:26;;;;;;;;;;;;;;;23.00;41.56;95754.25;10340109;28;1984;-55
2022/05/16 05:32:27;;;;;;;;;;;;;;;23.02;41.68;95762.69;10356461;28;1852;-57
2022/05/16 05:37:31;;;;;;;;;;;;;;;23.03;41.60;95754.44;10378539;28;1961;-62
2022/05/16 05:42:31;;;;;;;;;;;;;;;23.03;41.66;95753.66;10361229;28;2018;-59
2022/05/16 05:47:35;;;;;;;;;;;;;;;23.06;41.63;95747.81;10296314;28;1908;-61
2022/05/16 05:52:36;;;;;;;;;;;;;;;23.08;41.67;95753.59;10278723;28;1931;-60
2022/05/16 05:57:36;;;;;;;;;;;;;;;23.02;42.39;95762.69;10308936;28;1967;-58
2022/05/16 06:02:40;;;;;;;;;;;;;;;22.92;42.67;95758.31;10351222;28;1981;-57
2022/05/16 06:07:40;;;;;;;;;;;;;;;22.87;42.31;95763.69;10347968;28;1922;-62
2022/05/16 06:12:41;;;;;;;;;;;;;;;22.90;42.25;95765.75;10354084;28;2049;-60
2022/05/16 06:17:43;;;;;;;;;;;;;;;22.94;42.13;95771.25;10352687;28;1978;-62
2022/05/16 06:22:43;;;;;;;;;;;;;;;22.93;42.18;95772.31;10369858;28;1987;-62
2022/05/16 06:27:44;;;;;;;;;;;;;;;22.95;41.86;95784.19;10368703;28;1953;-59
2022/05/16 06:32:44;;;;;;;;;;;;;;;22.93;41.77;95785.53;10356063;28;2238;-62
2022/05/16 06:37:45;;;;;;;;;;;;;;;22.93;41.97;95798.75;10373748;28;1789;-61
2022/05/16 06:42:46;;;;;;;;;;;;;;;22.92;42.21;95799.81;10339869;28;2276;-61
2022/05/16 06:47:46;;;;;;;;;;;;;;;22.90;41.85;95812.53;10336860;28;1857;-61
2022/05/16 06:52:47;;;;;;;;;;;;;;;22.94;41.94;95811.69;10332089;28;1993;-62
2022/05/16 06:57:48;;;;;;;;;;;;;;;22.93;41.91;95823.34;10343304;28;1861;-62
2022/05/16 07:02:48;;;;;;;;;;;;;;;22.94;41.92;95824.09;10364758;28;1932;-62
2022/05/16 07:07:51;;;;;;;;;;;;;;;22.91;41.92;95833.41;10332468;28;1830;-61
2022/05/16 07:12:51;;;;;;;;;;;;;;;22.94;42.41;95842.63;10343010;28;1965;-59
2022/05/16 07:17:52;;;;;;;;;;;;;;;22.95;42.27;95847.63;10343528;28;1824;-59
2022/05/16 07:22:53;;;;;;;;;;;;;;;22.99;42.40;95858.41;10330163;28;1804;-59
2022/05/16 07:27:56;;;;;;;;;;;;;;;22.97;42.47;95866.63;10343958;28;1785;-61
2022/05/16 07:32:57;;;;;;;;;;;;;;;22.96;42.52;95869.53;10334965;28;2067;-59
2022/05/16 07:37:58;;;;;;;;;;;;;;;22.96;42.46;95875.63;10330092;28;1893;-62
2022/05/16 07:42:58;;;;;;;;;;;;;;;22.96;42.84;95878.28;10326266;28;1814;-62
2022/05/16 07:48:02;;;;;;;;;;;;;;;22.96;42.38;95890.69;10334814;28;2013;-59
2022/05/16 07:53:04;;;;;;;;;;;;;;;22.97;42.51;95887.78;10352884;28;1973;-60
2022/05/16 07:58:05;;;;;;;;;;;;;;;22.99;42.15;95895.44;10350950;28;1765;-62
2022/05/16 08:03:08;;;;;;;;;;;;;;;22.95;42.14;95905.78;10342627;28;1852;-60
2022/05/16 08:13:28;;;;;;;;;;;;;;;22.99;42.54;95911.28;10357022;28;1906;-59
2022/05/16 08:18:28;;;;;;;;;;;;;;;22.99;42.87;95920.00;10339799;28;1956;-57
2022/05/16 08:23:29;;;;;;;;;;;;;;;22.96;42.38;95923.22;10335089;28;1844;-59
2022/05/16 08:28:30;;;;;;;;;;;;;;;22.95;42.21;95931.44;10351170;28;1842;-60
2022/05/16 08:33:32;;;;;;;;;;;;;;;22.96;42.10;95947.00;10361515;28;1914;-63
2022/05/16 08:43:52;;;;;;;;;;;;;;;22.96;42.13;95959.44;10360039;28;1801;-61
2022/05/16 08:48:55;;;;;;;;;;;;;;;22.96;42.46;95976.09;10359856;28;1845;-62
2022/05/16 08:54:10;;;;;;;;;;;;;;;22.93;42.71;95981.16;10341235;28;1914;-62
2022/05/16 08:59:16;;;;;;;;;;;;;;;22.86;42.94;95980.69;10355050;28;1864;-60
2022/05/16 09:04:17;;;;;;;;;;;;;;;22.86;42.75;95991.28;10352414;28;1905;-63
2022/05/16 09:09:20;;;;;;;;;;;;;;;22.90;42.42;95987.00;10316605;28;1879;-61
2022/05/16 09:14:20;;;;;;;;;;;;;;;22.96;42.24;96001.72;10346528;28;1906;-62
2022/05/16 09:19:41;;;;;;;;;;;;;;;22.99;41.91;96006.47;10349562;28;1915;-61
2022/05/16 09:24:45;;;;;;;;;;;;;;;23.00;41.75;96014.09;10345864;28;1844;-62
2022/05/16 09:29:46;;;;;;;;;;;;;;;23.06;43.01;96020.91;10358350;28;1883;-63
2022/05/16 09:34:46;;;;;;;;;;;;;;;23.09;42.42;96027.50;10334169;28;1914;-61
2022/05/16 09:39:47;;;;;;;;;;;;;;;23.06;42.34;96017.50;10350764;28;1880;-60
2022/05/16 09:44:48;;;;;;;;;;;;;;;23.07;42.24;96025.13;10319497;28;1844;-63
2022/05/16 09:50:07;;;;;;;;;;;;;;;23.09;42.46;96033.56;10323182;28;1861;-59
2022/05/16 09:55:23;;;;;;;;;;;;;;;23.09;42.55;96022.19;10327214;28;1956;-63
2022/05/16 10:00:24;;;;;;;;;;;;;;;23.09;41.96;96028.28;10331083;28;1879;-61
2022/05/16 10:05:26;;;;;;;;;;;;;;;23.10;42.26;96027.19;10323955;28;1781;-61
2022/05/16 10:10:28;;;;;;;;;;;;;;;23.11;41.73;96030.63;10330547;28;1757;-60
2022/05/16 10:15:29;;;;;;;;;;;;;;;23.11;42.04;96028.00;10332239;28;1969;-60
2022/05/16 10:20:32;;;;;;;;;;;;;;;23.12;41.96;96026.94;10335534;28;1890;-60
2022/05/16 10:25:38;;;;;;;;;;;;;;;23.12;42.22;96032.22;10323594;28;1905;-61
2022/05/16 10:35:59;;;;;;;;;;;;;;;23.11;41.42;96030.63;10319111;28;2288;-61
2022/05/16 10:41:00;;;;;;;;;;;;;;;23.12;41.87;96030.34;10345485;28;1812;-62
2022/05/16 10:46:14;;;;;;;;;;;;;;;23.12;41.47;96022.41;10347149;28;1948;-60
2022/05/16 10:51:24;;;;;;;;;;;;;;;23.10;42.17;96021.16;10332848;28;1823;-62
2022/05/16 10:56:32;;;;;;;;;;;;;;;23.14;42.22;96020.28;10326588;28;1906;-62
2022/05/16 11:01:36;;;;;;;;;;;;;;;23.17;42.27;96018.94;10333108;28;2467;-63
2022/05/16 11:06:48;;;;;;;;;;;;;;;23.17;42.48;96019.72;10315978;28;1836;-62
2022/05/16 11:11:50;;;;;;;;;;;;;;;23.19;42.42;96014.16;10332175;28;1931;-62
2022/05/16 11:16:50;;;;;;;;;;;;;;;23.20;42.45;96005.16;10347041;28;2177;-62
2022/05/16 11:22:09;;;;;;;;;;;;;;;23.20;42.70;96005.94;10332239;28;1838;-62
2022/05/16 11:27:13;;;;;;;;;;;;;;;23.19;42.63;96006.22;10346262;28;1835;-60
2022/05/16 11:32:19;;;;;;;;;;;;;;;23.20;42.34;95998.00;10356261;28;1860;-62
2022/05/16 11:37:39;;;;;;;;;;;;;;;23.21;42.36;95986.34;10357757;28;1980;-62
2022/05/16 11:42:42;;;;;;;;;;;;;;;23.21;42.78;95970.47;10349484;28;1865;-62
2022/05/16 11:47:54;;;;;;;;;;;;;;;23.23;42.83;95946.38;10327552;28;1874;-62
2022/05/16 11:53:15;;;;;;;;;;;;;;;23.24;43.06;95940.84;10353190;28;1975;-62
2022/05/16 12:03:42;;;;;;;;;;;;;;;23.29;43.54;95921.44;10359419;28;1971;-62
2022/05/16 12:08:43;;;;;;;;;;;;;;;23.28;44.04;95917.22;10368700;28;1804;-62
2022/05/16 12:13:56;;;;;;;;;;;;;;;23.27;44.75;95915.66;10353995;28;1988;-61
2022/05/16 12:19:09;;;;;;;;;;;;;;;23.28;44.63;95920.69;10353248;28;1903;-61
2022/05/16 12:24:25;;;;;;;;;;;;;;;23.27;44.63;95903.22;10335338;28;1900;-59
2022/05/16 12:29:38;;;;;;;;;;;;;;;23.28;44.57;95898.72;10333284;28;2132;-62
2022/05/16 12:34:40;;;;;;;;;;;;;;;23.29;44.57;95895.78;10330911;28;1976;-60
2022/05/16 12:39:43;;;;;;;;;;;;;;;23.30;44.62;95888.63;10336839;28;1753;-61
2022/05/16 12:44:47;;;;;;;;;;;;;;;23.30;44.49;95886.00;10332453;28;2100;-61
2022/05/16 12:49:58;;;;;;;;;;;;;;;23.29;44.63;95874.63;10346467;28;1812;-63
2022/05/16 12:55:04;;;;;;;;;;;;;;;23.31;44.71;95879.63;10324878;28;1882;-61
2022/05/16 13:00:04;;;;;;;;;;;;;;;23.31;44.68;95864.53;10339909;28;1754;-63
2022/05/16 13:05:20;;;;;;;;;;;;;;;23.30;44.71;95864.84;10337689;28;2162;-63
2022/05/16 13:10:20;;;;;;;;;;;;;;;23.32;44.66;95863.50;10324707;28;1806;-62
2022/05/16 13:15:26;;;;;;;;;;;;;;;23.35;45.23;95867.41;10352955;28;1932;-62
2022/05/16 13:20:31;;;;;;;;;;;;;;;23.36;44.92;95853.94;10344349;28;1862;-63
2022/05/16 13:25:31;;;;;;;;;;;;;;;23.38;45.05;95850.97;10352134;28;1844;-61
2022/05/16 13:30:32;;;;;;;;;;;;;;;23.37;45.25;95844.91;10348648;28;1893;-60
2022/05/16 13:35:36;;;;;;;;;;;;;;;23.39;45.30;95832.16;10337253;28;1969;-60
2022/05/16 13:40:41;;;;;;;;;;;;;;;23.39;45.21;95826.88;10341262;28;1797;-60
2022/05/16 13:45:42;;;;;;;;;;;;;;;23.41;45.28;95824.72;10363102;28;1848;-60
2022/05/16 13:50:45;;;;;;;;;;;;;;;23.39;45.27;95818.94;10335898;28;1908;-61
2022/05/16 13:55:46;;;;;;;;;;;;;;;23.39;45.56;95818.16;10334993;28;2001;-62
2022/05/16 14:00:50;;;;;;;;;;;;;;;23.41;45.46;95803.56;10339627;28;1788;-63
2022/05/16 14:05:52;;;;;;;;;;;;;;;23.43;45.46;95816.53;10350999;28;1869;-61
2022/05/16 14:10:55;;;;;;;;;;;;;;;23.45;45.05;95801.16;10348354;28;2023;-60
2022/05/16 14:15:57;;;;;;;;;;;;;;;23.47;45.08;95795.56;10315379;28;1973;-60
2022/05/16 14:21:15;;;;;;;;;;;;;;;23.46;45.04;95797.41;10317876;28;2246;-60
2022/05/16 14:26:19;;;;;;;;;;;;;;;23.43;44.97;95801.41;10328694;28;2217;-61
2022/05/16 14:31:27;;;;;;;;;;;;;;;23.40;45.21;95796.72;10353671;28;1832;-61
2022/05/16 14:36:35;;;;;;;;;;;;;;;23.42;45.15;95789.28;10334494;28;1906;-60
2022/05/16 14:41:44;;;;;;;;;;;;;;;23.41;45.14;95792.22;10318549;28;1800;-59
2022/05/16 14:46:55;;;;;;;;;;;;;;;23.45;45.16;95803.78;10341138;28;1824;-60
2022/05/16 14:51:56;;;;;;;;;;;;;;;23.47;45.00;95819.38;10347411;28;1840;-60
2022/05/16 14:56:56;;;;;;;;;;;;;;;23.44;45.08;95863.06;10327404;28;1914;-61
2022/05/16 15:07:17;;;;;;;;;;;;;;;23.42;44.84;95918.13;10335333;28;1702;-61
2022/05/16 15:12:17;;;;;;;;;;;;;;;23.41;44.79;95888.22;10341751;28;1816;-61
2022/05/16 15:17:18;;;;;;;;;;;;;;;23.41;44.64;95845.13;10331234;28;1922;-60
2022/05/16 15:22:19;;;;;;;;;;;;;;;23.40;44.94;95889.31;10330688;28;1805;-58
2022/05/16 15:27:19;;;;;;;;;;;;;;;23.39;44.73;95900.16;10332699;28;2395;-60
2022/05/16 15:32:21;;;;;;;;;;;;;;;23.37;44.67;95895.16;10339054;28;1685;-61
2022/05/16 15:37:21;;;;;;;;;;;;;;;23.39;44.64;95886.94;10346795;28;1984;-62
2022/05/16 15:42:24;;;;;;;;;;;;;;;23.39;44.54;95895.66;10346616;28;1863;-61
2022/05/16 15:47:24;;;;;;;;;;;;;;;23.39;44.59;95874.50;10338117;28;1893;-58
2022/05/16 15:52:26;;;;;;;;;;;;;;;23.38;44.71;95880.88;10338121;28;1959;-59
2022/05/16 15:57:27;;;;;;;;;;;;;;;23.39;44.81;95882.44;10347252;28;1981;-61
2022/05/16 16:02:28;;;;;;;;;;;;;;;23.40;44.91;95878.72;10357532;28;1981;-60
2022/05/16 16:12:47;;;;;;;;;;;;;;;23.40;44.94;95860.22;10352338;28;1845;-61
2022/05/16 16:17:48;;;;;;;;;;;;;;;23.40;45.01;95851.47;10349068;28;1965;-60
2022/05/16 16:22:48;;;;;;;;;;;;;;;23.40;44.75;95854.13;10356480;28;1971;-62
2022/05/16 16:27:48;;;;;;;;;;;;;;;23.39;45.00;95860.47;10367650;28;1967;-59
2022/05/16 16:32:49;;;;;;;;;;;;;;;23.39;44.64;95876.34;10332309;28;1813;-60
2022/05/16 16:37:49;;;;;;;;;;;;;;;23.38;44.93;95882.72;10333832;28;1899;-59
2022/05/16 16:42:49;;;;;;;;;;;;;;;23.40;44.75;95885.88;10355821;28;1813;-59
2022/05/16 16:47:50;;;;;;;;;;;;;;;23.40;44.82;95889.31;10357785;28;1855;-62
2022/05/16 16:58:09;;;;;;;;;;;;;;;23.40;44.43;95907.03;10352354;28;1876;-61
2022/05/16 17:03:11;;;;;;;;;;;;;;;23.37;44.77;95926.09;10353323;28;2201;-60
2022/05/16 17:08:12;;;;;;;;;;;;;;;23.39;44.53;95923.97;10332960;28;1798;-61
2022/05/16 17:13:14;;;;;;;;;;;;;;;23.38;44.54;95917.91;10357105;28;1983;-61
2022/05/16 17:18:15;;;;;;;;;;;;;;;23.38;44.40;95906.53;10351465;28;1819;-60
2022/05/16 17:23:15;;;;;;;;;;;;;;;23.36;44.74;95928.00;10333899;28;1781;-62
2022/05/16 17:28:16;;;;;;;;;;;;;;;23.40;44.53;95928.19;10332810;28;2139;-61
2022/05/16 17:33:17;;;;;;;;;;;;;;;23.38;44.28;95940.94;10338104;28;1975;-61
2022/05/16 17:38:18;;;;;;;;;;;;;;;23.39;44.30;95945.91;10338150;28;2178;-60
2022/05/16 17:43:19;;;;;;;;;;;;;;;23.39;44.74;95948.56;10337513;28;1817;-61
2022/05/16 17:48:19;;;;;;;;;;;;;;;23.43;44.50;95948.81;10336804;28;1794;-60
2022/05/16 17:53:20;;;;;;;;;;;;;;;23.41;44.35;95957.00;10354580;28;1914;-60
2022/05/16 17:58:20;;;;;;;;;;;;;;;23.39;45.10;95959.16;10363376;28;1860;-60
2022/05/16 18:03:20;;;;;;;;;;;;;;;23.39;44.92;95961.00;10363525;28;1859;-59
2022/05/16 18:08:21;;;;;;;;;;;;;;;23.42;44.97;95984.25;10359951;28;1861;-60
2022/05/16 18:13:22;;;;;;;;;;;;;;;23.40;44.67;95984.53;10351415;28;1914;-58
2022/05/16 18:18:23;;;;;;;;;;;;;;;23.40;44.94;95989.03;10355064;28;1848;-61
2022/05/16 18:23:25;;;;;;;;;;;;;;;23.41;44.78;95998.56;10321493;28;3489;-61
2022/05/16 18:28:26;;;;;;;;;;;;;;;23.42;44.41;96006.22;10336427;28;1870;-61
2022/05/16 18:33:26;;;;;;;;;;;;;;;23.42;44.90;96010.72;10334731;28;1916;-60
2022/05/16 18:38:27;;;;;;;;;;;;;;;23.43;44.48;96017.59;10347176;28;1642;-62
2022/05/16 18:54:16;;;;;;;;;;;;;;;23.44;45.50;96053.53;10321228;28;1910;-60
2022/05/16 18:59:16;;;;;;;;;;;;;;;23.47;45.62;96052.19;10349240;28;1871;-61
2022/05/16 19:04:16;;;;;;;;;;;;;;;23.41;47.01;96056.78;10351086;28;2187;-62
2022/05/16 19:09:17;;;;;;;;;;;;;;;23.38;47.24;96059.97;10343559;28;1711;-59
2022/05/16 19:14:19;;;;;;;;;;;;;;;23.32;47.14;96064.53;10357614;28;1914;-56
2022/05/16 19:19:20;;;;;;;;;;;;;;;23.33;46.58;96070.59;10351925;28;1841;-57
2022/05/16 19:24:21;;;;;;;;;;;;;;;23.36;45.91;96068.19;10363387;28;2013;-59
2022/05/16 19:34:41;;;;;;;;;;;;;;;23.36;44.90;96075.34;10372213;28;1965;-60
2022/05/16 19:39:42;;;;;;;;;;;;;;;23.37;44.56;96076.91;10363810;28;1792;-58
2022/05/16 19:44:43;;;;;;;;;;;;;;;23.35;44.93;96076.38;10358764;28;1926;-58
2022/05/16 19:49:43;;;;;;;;;;;;;;;23.37;45.10;96074.25;10353936;28;1856;-57
2022/05/16 19:54:45;;;;;;;;;;;;;;;23.39;45.25;96064.16;10351486;28;1952;-59
2022/05/16 19:59:48;;;;;;;;;;;;;;;23.41;45.41;96072.63;10374830;28;1772;-58
2022/05/16 20:04:49;;;;;;;;;;;;;;;23.41;45.21;96072.63;10344620;28;1815;-56
2022/05/16 20:09:50;;;;;;;;;;;;;;;23.40;45.29;96069.19;10348871;28;1686;-58
2022/05/16 20:14:50;;;;;;;;;;;;;;;23.42;45.18;96079.50;10335656;28;1979;-59
2022/05/16 20:19:50;;;;;;;;;;;;;;;23.41;45.35;96081.34;10358081;28;1847;-59
2022/05/16 20:30:10;;;;;;;;;;;;;;;23.43;45.47;96073.16;10350337;28;1793;-59
2022/05/16 20:35:11;;;;;;;;;;;;;;;23.43;45.41;96075.78;10339614;28;1910;-60
2022/05/16 20:40:12;;;;;;;;;;;;;;;23.42;45.29;96075.00;10355878;28;1828;-60
2022/05/16 20:45:12;;;;;;;;;;;;;;;23.42;45.21;96067.06;10359825;28;1792;-59
2022/05/16 20:50:13;;;;;;;;;;;;;;;23.42;45.25;96075.00;10353322;28;1800;-58
2022/05/16 20:55:14;;;;;;;;;;;;;;;23.43;45.23;96065.22;10333218;28;1906;-58
2022/05/16 21:00:16;;;;;;;;;;;;;;;23.44;45.46;96085.28;10351811;28;1635;-59
2022/05/16 21:05:16;;;;;;;;;;;;;;;23.43;45.39;96102.25;10351093;28;2142;-57
2022/05/16 21:10:17;;;;;;;;;;;;;;;23.43;45.39;96079.19;10337918;28;1775;-57
2022/05/16 21:15:18;;;;;;;;;;;;;;;23.43;45.17;96063.31;10353277;28;1914;-58
2022/05/16 21:20:19;;;;;;;;;;;;;;;23.42;45.22;96061.78;10337035;28;1856;-59
2022/05/16 21:25:20;;;;;;;;;;;;;;;23.41;44.96;96062.06;10339045;28;1907;-58
2022/05/16 21:30:21;;;;;;;;;;;;;;;23.41;44.78;96070.75;10351315;28;1887;-57
2022/05/16 21:35:21;;;;;;;;;;;;;;;23.43;44.78;96070.50;10356018;28;1930;-59
2022/05/16 21:40:22;;;;;;;;;;;;;;;23.42;45.16;96074.19;10351443;28;1741;-57
2022/05/16 21:45:23;;;;;;;;;;;;;;;23.41;44.97;96076.06;10352469;28;1819;-55
2022/05/16 21:50:25;;;;;;;;;;;;;;;23.41;44.81;96075.28;10350631;28;1873;-58
2022/05/16 21:55:25;;;;;;;;;;;;;;;23.42;44.71;96082.94;10331249;28;1973;-56
2022/05/16 22:00:26;;;;;;;;;;;;;;;23.41;44.57;96070.75;10333471;28;1800;-59
2022/05/16 22:05:27;;;;;;;;;;;;;;;23.40;44.58;96077.13;10348935;28;1781;-58
2022/05/16 22:10:28;;;;;;;;;;;;;;;23.40;44.54;96081.63;10354604;28;1824;-56
2022/05/16 22:15:28;;;;;;;;;;;;;;;23.39;44.83;96080.84;10338690;28;1938;-59
2022/05/16 22:20:28;;;;;;;;;;;;;;;23.39;44.60;96075.53;10335283;28;1812;-59
2022/05/16 22:25:29;;;;;;;;;;;;;;;23.39;44.40;96080.84;10336775;28;1832;-59
2022/05/16 22:30:30;;;;;;;;;;;;;;;23.39;44.53;96075.53;10355919;28;1805;-58
2022/05/16 22:35:30;;;;;;;;;;;;;;;23.39;44.57;96083.50;10352702;28;1977;-59
2022/05/16 22:40:31;;;;;;;;;;;;;;;23.39;44.52;96085.34;10353255;28;1868;-60
2022/05/16 22:45:33;;;;;;;;;;;;;;;23.38;44.25;96091.72;10350863;28;1843;-58
2022/05/16 22:50:33;;;;;;;;;;;;;;;23.38;44.32;96081.94;10324846;28;1840;-58
2022/05/16 22:55:34;;;;;;;;;;;;;;;23.38;44.46;96083.78;10325300;28;1978;-59
2022/05/16 23:00:34;;;;;;;;;;;;;;;23.38;44.58;96089.84;10344025;28;1831;-59
2022/05/16 23:05:34;;;;;;;;;;;;;;;23.37;44.56;96084.84;10346636;28;1781;-59
2022/05/16 23:10:35;;;;;;;;;;;;;;;23.36;44.07;96088.56;10338368;28;1758;-59
2022/05/16 23:15:36;;;;;;;;;;;;;;;23.37;44.52;96096.22;10329560;28;1914;-58
2022/05/16 23:20:36;;;;;;;;;;;;;;;23.37;44.23;96098.84;10321778;28;1793;-57
2022/05/16 23:25:36;;;;;;;;;;;;;;;23.37;44.51;96098.84;10328658;28;1987;-59
2022/05/16 23:30:37;;;;;;;;;;;;;;;23.37;44.24;96093.56;10350248;28;1844;-60
2022/05/16 23:35:37;;;;;;;;;;;;;;;23.37;44.12;96096.22;10333595;28;1902;-59
2022/05/16 23:40:38;;;;;;;;;;;;;;;23.37;44.52;96096.22;10319577;28;1796;-59
2022/05/16 23:45:39;;;;;;;;;;;;;;;23.37;44.07;96104.16;10337255;28;1899;-58
2022/05/16 23:50:39;;;;;;;;;;;;;;;23.36;44.25;96105.22;10341141;28;1853;-58
2022/05/16 23:55:39;;;;;;;;;;;;;;;23.38;44.48;96110.22;10333431;28;1902;-59
